createdAt,value
2018-03-20T00:02:07.740Z,101675.80
2018-03-20T00:04:33.761Z,101669.76
2018-03-20T00:06:59.774Z,101674.40
2018-03-20T00:09:25.949Z,101664.67
2018-03-20T00:11:52.094Z,101661.55
2018-03-20T00:14:18.106Z,101666.53
2018-03-20T00:16:44.421Z,101664.80
2018-03-20T00:19:10.510Z,101656.87
2018-03-20T00:21:36.554Z,101658.41
2018-03-20T00:24:02.577Z,101653.19
2018-03-20T00:26:28.578Z,101650.75
2018-03-20T00:28:54.563Z,101651.14
2018-03-20T00:31:20.567Z,101656.30
2018-03-20T00:33:46.622Z,101656.48
2018-03-20T00:36:12.666Z,101656.02
2018-03-20T00:38:38.711Z,101650.97
2018-03-20T00:41:04.769Z,101653.23
2018-03-20T00:43:30.766Z,101650.33
2018-03-20T00:45:56.782Z,101638.79
2018-03-20T00:48:22.793Z,101637.55
2018-03-20T00:50:48.829Z,101644.87
2018-03-20T00:53:14.828Z,101638.30
2018-03-20T00:55:40.878Z,101639.19
2018-03-20T00:58:06.852Z,101640.22
2018-03-20T01:00:32.835Z,101647.57
2018-03-20T01:02:58.867Z,101655.42
2018-03-20T01:05:24.881Z,101655.28
2018-03-20T01:07:50.887Z,101650.70
2018-03-20T01:10:16.905Z,101658.02
2018-03-20T01:12:42.991Z,101658.80
2018-03-20T01:15:09.005Z,101653.83
2018-03-20T01:17:35.014Z,101652.27
2018-03-20T01:20:01.182Z,101650.95
2018-03-20T01:22:27.198Z,101655.25
2018-03-20T01:24:53.210Z,101645.48
2018-03-20T01:27:19.755Z,101649.81
2018-03-20T01:29:45.845Z,101647.25
2018-03-20T01:32:11.843Z,101648.00
2018-03-20T01:34:37.860Z,101645.37
2018-03-20T01:37:03.878Z,101642.63
2018-03-20T01:39:29.976Z,101641.91
2018-03-20T01:41:56.103Z,101641.77
2018-03-20T01:44:22.154Z,101640.73
2018-03-20T01:46:48.190Z,101634.02
2018-03-20T01:49:14.237Z,101633.33
2018-03-20T01:51:40.274Z,101633.08
2018-03-20T01:54:06.467Z,101634.78
2018-03-20T01:56:32.512Z,101639.00
2018-03-20T01:58:58.548Z,101626.98
2018-03-20T02:01:24.521Z,101621.11
2018-03-20T02:03:50.537Z,101617.36
2018-03-20T02:06:16.565Z,101618.99
2018-03-20T02:08:42.590Z,101617.14
2018-03-20T02:11:08.634Z,101618.61
2018-03-20T02:13:34.648Z,101619.81
2018-03-20T02:16:01.405Z,101620.36
2018-03-20T02:18:27.428Z,101615.02
2018-03-20T02:20:53.448Z,101619.52
2018-03-20T02:23:19.751Z,101613.36
2018-03-20T02:25:45.800Z,101620.02
2018-03-20T02:28:11.895Z,101620.61
2018-03-20T02:30:38.040Z,101623.20
2018-03-20T02:33:04.066Z,101620.41
2018-03-20T02:35:30.112Z,101625.58
2018-03-20T02:37:56.212Z,101620.80
2018-03-20T02:40:22.234Z,101616.36
2018-03-20T02:42:48.353Z,101612.85
2018-03-20T02:45:14.389Z,101608.19
2018-03-20T02:47:40.434Z,101612.28
2018-03-20T02:50:06.482Z,101609.63
2018-03-20T02:52:32.488Z,101601.77
2018-03-20T02:54:58.535Z,101603.59
2018-03-20T02:57:24.546Z,101602.29
2018-03-20T02:59:50.546Z,101602.84
2018-03-20T03:02:16.569Z,101604.71
2018-03-20T03:04:42.629Z,101602.58
2018-03-20T03:07:08.647Z,101603.09
2018-03-20T03:09:34.702Z,101602.48
2018-03-20T03:12:00.743Z,101605.34
2018-03-20T03:14:26.770Z,101603.58
2018-03-20T03:16:52.838Z,101603.18
2018-03-20T03:19:18.826Z,101599.60
2018-03-20T03:21:44.814Z,101614.66
2018-03-20T03:24:10.827Z,101606.06
2018-03-20T03:26:36.838Z,101608.66
2018-03-20T03:29:02.854Z,101615.26
2018-03-20T03:31:28.871Z,101606.83
2018-03-20T03:33:54.944Z,101599.53
2018-03-20T03:36:20.952Z,101602.45
2018-03-20T03:38:47.016Z,101600.02
2018-03-20T03:41:13.043Z,101602.44
2018-03-20T03:43:39.146Z,101600.04
2018-03-20T03:46:05.267Z,101593.08
2018-03-20T03:48:31.266Z,101588.78
2018-03-20T03:50:57.258Z,101597.08
2018-03-20T03:53:23.521Z,101599.16
2018-03-20T03:55:49.538Z,101595.24
2018-03-20T03:58:15.546Z,101595.41
2018-03-20T04:00:41.556Z,101591.31
2018-03-20T04:03:07.690Z,101589.09
2018-03-20T04:05:33.779Z,101586.83
2018-03-20T04:07:59.873Z,101590.28
2018-03-20T04:10:25.907Z,101590.05
2018-03-20T04:12:58.789Z,101582.87
2018-03-20T04:15:24.902Z,101587.98
2018-03-20T04:17:50.918Z,101583.50
2018-03-20T04:20:16.996Z,101588.31
2018-03-20T04:22:43.125Z,101580.86
2018-03-20T04:25:09.159Z,101587.46
2018-03-20T04:27:35.250Z,101580.77
2018-03-20T04:30:01.264Z,101584.34
2018-03-20T04:32:27.317Z,101580.38
2018-03-20T04:34:53.388Z,101577.64
2018-03-20T04:37:19.498Z,101580.90
2018-03-20T04:39:45.510Z,101587.13
2018-03-20T04:42:11.529Z,101588.20
2018-03-20T04:44:37.642Z,101596.45
2018-03-20T04:47:03.703Z,101598.83
2018-03-20T04:49:29.713Z,101593.86
2018-03-20T04:51:55.709Z,101610.88
2018-03-20T04:54:21.771Z,101611.99
2018-03-20T04:56:47.862Z,101616.40
2018-03-20T04:59:13.928Z,101612.23
2018-03-20T05:01:39.908Z,101622.51
2018-03-20T05:04:06.073Z,101613.84
2018-03-20T05:06:32.276Z,101612.99
2018-03-20T05:08:58.277Z,101613.13
2018-03-20T05:11:24.323Z,101617.90
2018-03-20T05:13:50.439Z,101623.14
2018-03-20T05:16:16.496Z,101630.88
2018-03-20T05:18:43.548Z,101629.02
2018-03-20T05:21:10.478Z,101630.22
2018-03-20T05:23:54.205Z,101629.57
2018-03-20T05:26:20.379Z,101637.93
2018-03-20T05:28:46.388Z,101638.25
2018-03-20T05:31:12.445Z,101642.21
2018-03-20T05:33:38.591Z,101643.09
2018-03-20T05:36:04.661Z,101641.66
2018-03-20T05:38:30.716Z,101646.13
2018-03-20T05:40:56.767Z,101648.27
2018-03-20T05:43:22.802Z,101650.39
2018-03-20T05:45:48.836Z,101657.97
2018-03-20T05:48:27.802Z,101665.05
2018-03-20T05:51:00.110Z,101671.01
2018-03-20T05:53:26.235Z,101670.54
2018-03-20T05:55:52.275Z,101667.98
2018-03-20T05:58:18.315Z,101666.23
2018-03-20T06:00:44.319Z,101676.20
2018-03-20T06:03:10.423Z,101675.56
2018-03-20T06:05:36.542Z,101696.23
2018-03-20T06:08:02.563Z,101694.75
2018-03-20T06:10:28.634Z,101693.56
2018-03-20T06:12:54.669Z,101695.36
2018-03-20T06:15:20.711Z,101696.72
2018-03-20T06:17:46.778Z,101708.47
2018-03-20T06:20:12.963Z,101717.09
2018-03-20T06:22:39.586Z,101718.87
2018-03-20T06:25:05.733Z,101727.07
2018-03-20T06:27:31.785Z,101720.06
2018-03-20T06:29:57.814Z,101728.02
2018-03-20T06:32:23.930Z,101734.28
2018-03-20T06:34:50.020Z,101736.75
2018-03-20T06:37:16.031Z,101738.03
2018-03-20T06:39:42.042Z,101739.48
2018-03-20T06:42:08.079Z,101748.04
2018-03-20T06:44:34.116Z,101748.13
2018-03-20T06:47:00.118Z,101760.65
2018-03-20T06:49:26.138Z,101768.40
2018-03-20T06:51:52.218Z,101772.50
2018-03-20T06:54:18.221Z,101780.77
2018-03-20T06:56:44.220Z,101780.47
2018-03-20T06:59:10.343Z,101787.02
2018-03-20T07:01:36.401Z,101777.83
2018-03-20T07:04:02.429Z,101773.77
2018-03-20T07:06:28.501Z,101785.44
2018-03-20T07:08:54.530Z,101783.38
2018-03-20T07:11:20.566Z,101787.48
2018-03-20T07:13:46.552Z,101791.89
2018-03-20T07:16:12.605Z,101791.38
2018-03-20T07:18:38.592Z,101794.85
2018-03-20T07:21:04.614Z,101804.07
2018-03-20T07:23:30.650Z,101799.15
2018-03-20T07:25:56.661Z,101806.50
2018-03-20T07:28:22.815Z,101807.70
2018-03-20T07:30:48.782Z,101814.24
2018-03-20T07:33:14.831Z,101825.72
2018-03-20T07:35:40.835Z,101821.03
2018-03-20T07:38:06.911Z,101827.61
2018-03-20T07:40:32.915Z,101829.28
2018-03-20T07:42:58.932Z,101832.16
2018-03-20T07:45:24.948Z,101827.19
2018-03-20T07:47:50.957Z,101831.78
2018-03-20T07:50:16.989Z,101838.97
2018-03-20T07:52:43.018Z,101844.63
2018-03-20T07:55:09.041Z,101853.23
2018-03-20T07:57:35.039Z,101858.54
2018-03-20T08:00:01.100Z,101864.14
2018-03-20T08:02:27.158Z,101861.34
2018-03-20T08:04:53.148Z,101869.62
2018-03-20T08:07:19.294Z,101879.56
2018-03-20T08:09:45.301Z,101875.16
2018-03-20T08:12:11.289Z,101876.16
2018-03-20T08:14:37.342Z,101888.59
2018-03-20T08:17:03.523Z,101887.96
2018-03-20T08:19:29.549Z,101890.47
2018-03-20T08:21:55.633Z,101902.47
2018-03-20T08:24:21.805Z,101902.73
2018-03-20T08:26:47.988Z,101919.19
2018-03-20T08:29:14.104Z,101911.61
2018-03-20T08:31:40.086Z,101932.59
2018-03-20T08:34:06.117Z,101934.14
2018-03-20T08:36:32.382Z,101946.94
2018-03-20T08:38:58.417Z,101947.02
2018-03-20T08:41:24.632Z,101954.17
2018-03-20T08:43:50.674Z,101961.56
2018-03-20T08:46:16.682Z,101961.30
2018-03-20T08:48:42.715Z,101958.60
2018-03-20T08:51:08.743Z,101967.97
2018-03-20T08:53:34.759Z,101977.93
2018-03-20T08:56:00.769Z,101990.15
2018-03-20T08:58:26.836Z,101996.16
2018-03-20T09:00:52.831Z,101981.83
2018-03-20T09:03:18.895Z,101979.48
2018-03-20T09:05:44.986Z,101982.98
2018-03-20T09:08:10.986Z,101994.23
2018-03-20T09:10:37.062Z,102009.06
2018-03-20T09:13:03.207Z,102018.47
2018-03-20T09:15:29.253Z,102024.50
2018-03-20T09:17:55.301Z,102018.16
2018-03-20T09:20:21.368Z,102026.11
2018-03-20T09:22:47.423Z,102035.39
2018-03-20T09:25:13.445Z,102037.21
2018-03-20T09:27:39.584Z,102036.40
2018-03-20T09:30:05.634Z,102053.33
2018-03-20T09:32:31.627Z,102051.23
2018-03-20T09:34:57.683Z,102045.19
2018-03-20T09:37:24.107Z,102054.84
2018-03-20T09:39:50.135Z,102060.44
2018-03-20T09:42:16.754Z,102051.67
2018-03-20T09:44:42.789Z,102062.59
2018-03-20T09:47:08.819Z,102079.67
2018-03-20T09:49:34.848Z,102084.23
2018-03-20T09:52:00.866Z,102087.37
2018-03-20T09:54:26.907Z,102088.24
2018-03-20T09:56:53.000Z,102088.56
2018-03-20T09:59:19.138Z,102104.70
2018-03-20T10:01:45.151Z,102109.86
2018-03-20T10:04:11.176Z,102118.83
2018-03-20T10:06:37.228Z,102124.92
2018-03-20T10:09:03.403Z,102125.64
2018-03-20T10:11:29.437Z,102120.40
2018-03-20T10:13:55.948Z,102131.07
2018-03-20T10:16:21.965Z,102119.39
2018-03-20T10:18:48.036Z,102130.82
2018-03-20T10:21:14.731Z,102140.16
2018-03-20T10:23:40.735Z,102131.61
2018-03-20T10:26:06.812Z,102140.27
2018-03-20T10:28:32.826Z,102141.84
2018-03-20T10:30:58.835Z,102144.64
2018-03-20T10:33:24.988Z,102140.73
2018-03-20T10:35:50.985Z,102138.96
2018-03-20T10:38:17.098Z,102136.80
2018-03-20T10:40:43.154Z,102131.76
2018-03-20T10:43:09.204Z,102139.25
2018-03-20T10:45:35.209Z,102145.94
2018-03-20T10:48:01.330Z,102141.38
2018-03-20T10:50:27.399Z,102141.27
2018-03-20T10:52:53.465Z,102135.27
2018-03-20T10:55:19.490Z,102142.67
2018-03-20T10:57:45.599Z,102148.15
2018-03-20T11:00:11.688Z,102152.16
2018-03-20T11:02:43.782Z,102161.14
2018-03-20T11:05:09.809Z,102158.52
2018-03-20T11:07:35.848Z,102154.72
2018-03-20T11:10:02.359Z,102165.89
2018-03-20T11:12:28.409Z,102161.92
2018-03-20T11:14:54.410Z,102161.87
2018-03-20T11:17:20.448Z,102159.52
2018-03-20T11:19:46.480Z,102162.87
2018-03-20T11:22:12.497Z,102166.75
2018-03-20T11:24:38.517Z,102159.53
2018-03-20T11:27:04.554Z,102173.55
2018-03-20T11:29:30.573Z,102174.98
2018-03-20T11:31:56.669Z,102187.39
2018-03-20T11:34:22.780Z,102183.77
2018-03-20T11:36:48.836Z,102180.30
2018-03-20T11:39:14.878Z,102184.27
2018-03-20T11:41:40.883Z,102187.39
2018-03-20T11:44:06.968Z,102204.02
2018-03-20T11:46:33.113Z,102199.97
2018-03-20T11:48:59.152Z,102192.77
2018-03-20T11:51:25.204Z,102203.03
2018-03-20T11:53:51.289Z,102211.22
2018-03-20T11:56:17.432Z,102215.48
2018-03-20T11:58:43.582Z,102216.77
2018-03-20T12:01:09.686Z,102227.68
2018-03-20T12:03:35.781Z,102229.93
2018-03-20T12:06:01.838Z,102232.58
2018-03-20T12:08:40.068Z,102241.20
2018-03-20T12:11:06.168Z,102250.75
2018-03-20T12:13:32.180Z,102260.19
2018-03-20T12:15:58.202Z,102246.45
2018-03-20T12:18:24.270Z,102255.06
2018-03-20T12:20:50.347Z,102261.11
2018-03-20T12:23:16.395Z,102264.23
2018-03-20T12:25:42.396Z,102252.61
2018-03-20T12:28:08.475Z,102256.00
2018-03-20T12:30:34.499Z,102252.29
2018-03-20T12:33:00.552Z,102263.56
2018-03-20T12:35:26.624Z,102257.00
2018-03-20T12:37:52.638Z,102257.63
2018-03-20T12:40:18.669Z,102253.17
2018-03-20T12:42:44.830Z,102257.21
2018-03-20T12:45:10.876Z,102263.38
2018-03-20T12:47:37.065Z,102269.78
2018-03-20T12:50:03.096Z,102272.56
2018-03-20T12:52:29.211Z,102272.70
2018-03-20T12:54:55.463Z,102270.32
2018-03-20T12:57:22.019Z,102278.94
2018-03-20T12:59:48.146Z,102278.30
2018-03-20T13:02:14.171Z,102286.96
2018-03-20T13:04:40.289Z,102279.19
2018-03-20T13:07:06.266Z,102285.66
2018-03-20T13:09:32.333Z,102296.88
2018-03-20T13:11:58.377Z,102299.33
2018-03-20T13:14:24.454Z,102296.92
2018-03-20T13:16:50.495Z,102293.23
2018-03-20T13:19:16.589Z,102305.98
2018-03-20T13:21:42.610Z,102315.13
2018-03-20T13:24:08.676Z,102301.64
2018-03-20T13:26:34.733Z,102308.66
2018-03-20T13:29:00.799Z,102301.02
2018-03-20T13:31:26.802Z,102310.41
2018-03-20T13:33:52.860Z,102318.37
2018-03-20T13:36:18.908Z,102315.17
2018-03-20T13:38:44.939Z,102319.31
2018-03-20T13:41:10.982Z,102332.58
2018-03-20T13:43:37.052Z,102316.95
2018-03-20T13:46:03.061Z,102330.80
2018-03-20T13:48:29.081Z,102329.61
2018-03-20T13:50:58.677Z,102338.67
2018-03-20T13:53:27.358Z,102337.08
2018-03-20T13:55:53.562Z,102336.27
2018-03-20T13:58:19.599Z,102341.93
2018-03-20T14:00:45.636Z,102337.90
2018-03-20T14:03:11.829Z,102335.80
2018-03-20T14:05:37.961Z,102337.97
2018-03-20T14:08:04.066Z,102339.25
2018-03-20T14:10:30.088Z,102340.11
2018-03-20T14:12:56.219Z,102345.39
2018-03-20T14:15:22.246Z,102346.94
2018-03-20T14:17:48.259Z,102343.33
2018-03-20T14:20:14.311Z,102343.82
2018-03-20T14:22:40.395Z,102355.22
2018-03-20T14:25:06.420Z,102355.30
2018-03-20T14:27:32.469Z,102348.42
2018-03-20T14:29:58.536Z,102363.03
2018-03-20T14:32:24.609Z,102364.67
2018-03-20T14:34:50.704Z,102367.20
2018-03-20T14:37:16.751Z,102375.87
2018-03-20T14:39:42.841Z,102369.73
2018-03-20T14:42:08.900Z,102374.14
2018-03-20T14:44:34.956Z,102374.73
2018-03-20T14:47:00.998Z,102381.24
2018-03-20T14:49:27.182Z,102392.87
2018-03-20T14:51:53.248Z,102387.08
2018-03-20T14:54:19.305Z,102382.28
2018-03-20T14:56:45.361Z,102386.80
2018-03-20T14:59:11.581Z,102391.25
2018-03-20T15:01:37.778Z,102388.52
2018-03-20T15:04:03.993Z,102401.98
2018-03-20T15:06:30.040Z,102397.08
2018-03-20T15:08:56.159Z,102400.02
2018-03-20T15:11:22.361Z,102401.12
2018-03-20T15:13:48.446Z,102403.83
2018-03-20T15:16:14.469Z,102415.92
2018-03-20T15:18:40.542Z,102413.28
2018-03-20T15:21:06.688Z,102415.96
2018-03-20T15:23:32.787Z,102419.66
2018-03-20T15:25:58.937Z,102413.97
2018-03-20T15:28:24.984Z,102421.45
2018-03-20T15:30:51.019Z,102425.17
2018-03-20T15:33:17.096Z,102428.45
2018-03-20T15:35:43.174Z,102429.20
2018-03-20T15:38:09.802Z,102424.50
2018-03-20T15:40:35.870Z,102430.73
2018-03-20T15:43:01.978Z,102432.19
2018-03-20T15:45:28.047Z,102439.99
2018-03-20T15:47:54.103Z,102423.77
2018-03-20T15:50:20.136Z,102435.89
2018-03-20T15:52:46.242Z,102443.87
2018-03-20T15:55:12.288Z,102431.66
2018-03-20T15:57:39.223Z,102441.83
2018-03-20T16:00:05.256Z,102444.71
2018-03-20T16:02:31.425Z,102441.66
2018-03-20T16:04:57.507Z,102447.84
2018-03-20T16:07:23.499Z,102451.91
2018-03-20T16:09:50.242Z,102449.47
2018-03-20T16:12:16.269Z,102455.73
2018-03-20T16:14:42.262Z,102449.21
2018-03-20T16:17:08.396Z,102455.02
2018-03-20T16:19:34.412Z,102455.83
2018-03-20T16:22:00.430Z,102463.69
2018-03-20T16:24:26.463Z,102472.69
2018-03-20T16:26:52.575Z,102465.37
2018-03-20T16:29:18.595Z,102464.10
2018-03-20T16:31:44.626Z,102470.89
2018-03-20T16:34:10.709Z,102472.95
2018-03-20T16:36:36.790Z,102475.42
2018-03-20T16:39:02.890Z,102488.78
2018-03-20T16:41:28.916Z,102495.34
2018-03-20T16:43:55.041Z,102496.88
2018-03-20T16:46:21.103Z,102498.97
2018-03-20T16:48:47.186Z,102497.66
2018-03-20T16:51:13.221Z,102511.39
2018-03-20T16:53:39.270Z,102493.09
2018-03-20T16:56:05.339Z,102514.67
2018-03-20T16:58:31.341Z,102508.44
2018-03-20T17:00:57.388Z,102508.02
2018-03-20T17:03:23.441Z,102515.79
2018-03-20T17:05:49.466Z,102514.98
2018-03-20T17:08:16.573Z,102518.59
2018-03-20T17:10:42.598Z,102518.29
2018-03-20T17:13:08.614Z,102527.21
2018-03-20T17:15:34.646Z,102529.56
2018-03-20T17:18:00.726Z,102534.41
2018-03-20T17:20:27.108Z,102536.69
2018-03-20T17:22:53.258Z,102540.31
2018-03-20T17:25:19.393Z,102549.00
2018-03-20T17:27:45.412Z,102544.72
2018-03-20T17:30:11.546Z,102554.77
2018-03-20T17:32:37.712Z,102549.95
2018-03-20T17:35:03.762Z,102552.16
2018-03-20T17:37:29.976Z,102558.42
2018-03-20T17:39:56.061Z,102564.23
2018-03-20T17:42:22.090Z,102557.27
2018-03-20T17:44:48.177Z,102562.03
2018-03-20T17:47:14.282Z,102568.47
2018-03-20T17:49:40.350Z,102565.56
2018-03-20T17:52:06.402Z,102568.37
2018-03-20T17:54:32.561Z,102570.78
2018-03-20T17:56:58.595Z,102561.31
2018-03-20T17:59:24.762Z,102571.09
2018-03-20T18:01:50.839Z,102568.33
2018-03-20T18:04:16.896Z,102573.31
2018-03-20T18:06:42.940Z,102571.58
2018-03-20T18:09:08.958Z,102580.08
2018-03-20T18:11:35.012Z,102578.12
2018-03-20T18:14:01.071Z,102575.66
2018-03-20T18:16:27.147Z,102579.90
2018-03-20T18:18:53.373Z,102585.25
2018-03-20T18:21:19.482Z,102592.98
2018-03-20T18:23:45.604Z,102592.31
2018-03-20T18:26:11.641Z,102596.46
2018-03-20T18:28:38.292Z,102598.83
2018-03-20T18:31:04.330Z,102601.38
2018-03-20T18:33:30.382Z,102613.07
2018-03-20T18:35:56.493Z,102608.42
2018-03-20T18:38:22.534Z,102615.11
2018-03-20T18:40:48.539Z,102611.46
2018-03-20T18:43:14.580Z,102610.21
2018-03-20T18:45:40.744Z,102620.58
2018-03-20T18:48:06.868Z,102623.86
2018-03-20T18:50:33.002Z,102619.14
2018-03-20T18:52:59.181Z,102622.32
2018-03-20T18:55:25.437Z,102629.64
2018-03-20T18:57:51.546Z,102629.28
2018-03-20T19:00:17.620Z,102633.42
2018-03-20T19:02:43.676Z,102641.85
2018-03-20T19:05:09.925Z,102644.14
2018-03-20T19:07:36.117Z,102644.70
2018-03-20T19:10:02.296Z,102650.75
2018-03-20T19:12:28.359Z,102657.50
2018-03-20T19:14:54.462Z,102652.27
2018-03-20T19:17:20.549Z,102654.95
2018-03-20T19:19:46.665Z,102657.23
2018-03-20T19:22:12.669Z,102665.07
2018-03-20T19:24:38.737Z,102662.85
2018-03-20T19:27:04.869Z,102673.69
2018-03-20T19:29:31.003Z,102666.58
2018-03-20T19:31:57.164Z,102663.91
2018-03-20T19:34:23.316Z,102666.45
2018-03-20T19:36:49.514Z,102670.48
2018-03-20T19:39:15.656Z,102673.85
2018-03-20T19:41:41.762Z,102681.33
2018-03-20T19:44:07.925Z,102678.64
2018-03-20T19:46:34.115Z,102684.44
2018-03-20T19:49:00.382Z,102686.58
2018-03-20T19:51:26.490Z,102689.86
2018-03-20T19:53:52.636Z,102689.75
2018-03-20T19:56:18.767Z,102695.21
2018-03-20T19:58:44.947Z,102691.81
2018-03-20T20:01:11.009Z,102691.28
2018-03-20T20:03:37.094Z,102703.05
2018-03-20T20:06:03.371Z,102697.36
2018-03-20T20:08:29.518Z,102705.59
2018-03-20T20:10:55.770Z,102710.42
2018-03-20T20:13:21.956Z,102707.87
2018-03-20T20:15:48.043Z,102714.75
2018-03-20T20:18:14.101Z,102713.49
2018-03-20T20:20:40.296Z,102716.34
2018-03-20T20:23:06.493Z,102709.83
2018-03-20T20:25:32.580Z,102717.27
2018-03-20T20:27:58.701Z,102727.05
2018-03-20T20:30:24.798Z,102722.42
2018-03-20T20:32:50.894Z,102725.73
2018-03-20T20:35:17.001Z,102729.80
2018-03-20T20:37:43.089Z,102732.44
2018-03-20T20:40:09.270Z,102738.22
2018-03-20T20:42:35.429Z,102742.81
2018-03-20T20:45:01.443Z,102746.05
2018-03-20T20:47:27.564Z,102740.89
2018-03-20T20:49:53.660Z,102752.85
2018-03-20T20:52:19.829Z,102740.66
2018-03-20T20:54:45.902Z,102748.34
2018-03-20T20:57:11.918Z,102747.12
2018-03-20T20:59:38.010Z,102748.08
2018-03-20T21:02:04.115Z,102750.45
2018-03-20T21:04:30.185Z,102750.67
2018-03-20T21:06:56.237Z,102744.62
2018-03-20T21:09:22.409Z,102753.06
2018-03-20T21:11:48.482Z,102750.00
2018-03-20T21:14:14.494Z,102749.17
2018-03-20T21:16:40.498Z,102748.47
2018-03-20T21:19:06.600Z,102750.74
2018-03-20T21:21:32.634Z,102748.16
2018-03-20T21:23:58.694Z,102746.17
2018-03-20T21:26:24.743Z,102744.50
2018-03-20T21:28:50.794Z,102745.61
2018-03-20T21:31:16.844Z,102743.53
2018-03-20T21:33:42.889Z,102740.05
2018-03-20T21:36:09.112Z,102748.13
2018-03-20T21:38:35.126Z,102740.79
2018-03-20T21:41:01.159Z,102744.75
2018-03-20T21:43:27.258Z,102745.77
2018-03-20T21:45:53.391Z,102748.59
2018-03-20T21:48:19.485Z,102750.80
2018-03-20T21:50:46.297Z,102746.38
2018-03-20T21:53:12.370Z,102754.33
2018-03-20T21:55:38.385Z,102753.09
2018-03-20T21:58:04.413Z,102751.00
2018-03-20T22:00:30.509Z,102749.75
2018-03-20T22:03:03.490Z,102751.92
2018-03-20T22:05:29.644Z,102753.30
2018-03-20T22:07:55.864Z,102750.63
2018-03-20T22:10:21.879Z,102753.16
2018-03-20T22:12:48.027Z,102768.83
2018-03-20T22:15:14.077Z,102759.40
2018-03-20T22:17:40.177Z,102761.45
2018-03-20T22:20:06.173Z,102764.72
2018-03-20T22:22:32.275Z,102755.93
2018-03-20T22:24:58.428Z,102763.40
2018-03-20T22:27:24.503Z,102768.31
2018-03-20T22:29:50.541Z,102765.27
2018-03-20T22:32:16.564Z,102768.38
2018-03-20T22:34:42.577Z,102767.88
2018-03-20T22:37:08.619Z,102767.79
2018-03-20T22:39:35.066Z,102764.78
2018-03-20T22:42:01.148Z,102772.73
2018-03-20T22:44:27.258Z,102768.77
2018-03-20T22:46:53.360Z,102770.64
2018-03-20T22:49:19.370Z,102776.91
2018-03-20T22:51:46.013Z,102773.47
2018-03-20T22:54:12.023Z,102781.84
2018-03-20T22:56:38.106Z,102777.42
2018-03-20T22:59:04.324Z,102778.38
2018-03-20T23:01:30.417Z,102779.76
2018-03-20T23:03:56.470Z,102780.77
2018-03-20T23:06:22.520Z,102783.41
2018-03-20T23:08:48.538Z,102791.05
2018-03-20T23:11:14.548Z,102785.87
2018-03-20T23:13:40.573Z,102786.03
2018-03-20T23:16:06.581Z,102784.45
2018-03-20T23:18:32.696Z,102791.25
2018-03-20T23:20:58.748Z,102794.08
2018-03-20T23:23:24.781Z,102788.77
2018-03-20T23:25:50.830Z,102788.94
2018-03-20T23:28:17.067Z,102782.88
2018-03-20T23:30:43.137Z,102791.40
2018-03-20T23:33:09.275Z,102796.98
2018-03-20T23:35:35.760Z,102801.03
2018-03-20T23:38:02.003Z,102791.50
2018-03-20T23:40:28.034Z,102794.25
2018-03-20T23:42:54.055Z,102796.66
2018-03-20T23:45:20.548Z,102799.14
2018-03-20T23:47:46.705Z,102793.66
2018-03-20T23:50:12.751Z,102797.26
2018-03-20T23:52:38.810Z,102796.97
2018-03-20T23:55:04.848Z,102800.33
2018-03-20T23:57:30.911Z,102802.14
2018-03-20T23:59:56.920Z,102797.72
